Weston, Wisconsin
Current Conditions -  °F | °C
As of 4:54 PM on Tuesday 27 Jan 2015 (Local Time) from KAUW Reporting Station
Haze Haze  
Wind Chill: 24°   Ceiling: 1700
Heat Index: 24°   Visibility: 6mi
Dew Point: 20°   Wind: 0mph
Humidity: 84%   Direction: NA
Pressure: 30.18"   Gusts: NA
Location:  44.8809°N, 89.6196°W
Report Text: KAUW 272254Z AUTO 00000KT 6SM BR OVC017 M04/M07 A3018 RMK AO2 SNB2159E08B34E53 SLP246 P0000 T10441067
Loading
Personal Weather Stations






























Interactive Weather Map New forecast layout! Learn more

10-Day Weather Forecast

Advertisements
Track Severe Weather on mobile